Time;durP1;ratioP1;P1;durP2;ratioP2;P2;SDS_P1;SDS_P2;PMS_P1;PMS_P2;Temp;Humidity;BMP_temperature;BMP_pressure;BME280_temperature;BME280_humidity;BME280_pressure;Samples;Min_cycle;Max_cycle;Signal;HPM_P1;HPM_P2
2023/10/08 00:00:39;;;;;;;;;;;14.20;54.10;;;9.98;100.00;96490.50;5012551;28;19909;-48
2023/10/08 00:02:45;;;;;;;;;;;14.30;54.10;;;9.93;100.00;96489.38;5010442;28;20678;-50
2023/10/08 00:05:15;;;;;;;;;;;14.20;54.10;;;9.92;100.00;96490.38;5006952;28;19913;-52
2023/10/08 00:07:42;;;;;;;;;;;14.20;54.10;;;9.90;100.00;96497.00;5012289;28;19909;-50
2023/10/08 00:10:09;;;;;;;;;;;14.20;54.20;;;9.82;100.00;96492.88;5011624;28;19909;-52
2023/10/08 00:12:35;;;;;;;;;;;14.20;54.20;;;9.84;100.00;96490.78;5011694;28;19913;-52
2023/10/08 00:15:01;;;;;;;;;;;14.20;54.20;;;9.91;100.00;96504.75;5011626;28;19941;-50
2023/10/08 00:17:26;;;;;;;;;;;14.20;54.30;;;9.92;100.00;96497.56;5010195;28;19916;-55
2023/10/08 00:19:52;;;;;;;;;;;14.20;54.30;;;9.93;100.00;96496.53;5009008;28;19921;-51
2023/10/08 00:22:19;;;;;;;;;;;14.20;54.30;;;9.93;100.00;96501.84;5011113;28;19960;-52
2023/10/08 00:24:46;;;;;;;;;;;14.20;54.30;;;9.86;100.00;96509.97;5005894;28;19925;-52
2023/10/08 00:27:17;;;;;;;;;;;14.10;54.30;;;9.86;100.00;96504.66;5011168;28;19913;-49
2023/10/08 00:29:43;;;;;;;;;;;14.10;54.40;;;9.84;100.00;96505.94;4997737;28;19913;-47
2023/10/08 00:32:12;;;;;;;;;;;14.10;54.40;;;9.79;100.00;96505.84;5011757;28;20291;-51
2023/10/08 00:34:42;;;;;;;;;;;14.10;54.40;;;9.83;100.00;96501.66;5011175;28;20390;-51
2023/10/08 00:37:13;;;;;;;;;;;14.10;54.40;;;9.77;100.00;96502.59;5011333;28;19915;-51
2023/10/08 00:39:40;;;;;;;;;;;14.10;54.50;;;9.77;100.00;96503.41;5005786;28;20016;-48
2023/10/08 00:42:07;;;;;;;;;;;14.10;54.60;;;9.77;100.00;96500.75;5006505;28;20328;-48
2023/10/08 00:44:51;;;;;;;;;;;14.10;54.60;;;9.82;100.00;96502.72;5011365;28;20344;-51
2023/10/08 00:47:18;;;;;;;;;;;14.10;54.70;;;9.77;100.00;96497.28;5006557;28;19975;-48
2023/10/08 00:57:36;;;;;;;;;;;14.00;54.70;;;9.64;100.00;96490.38;5010560;28;19913;-52
2023/10/08 01:00:12;;;;;;;;;;;14.00;54.80;;;9.62;100.00;96489.81;5005231;28;19909;-50
2023/10/08 01:02:49;;;;;;;;;;;13.90;54.70;;;9.61;100.00;96485.53;5011567;28;19909;-48
2023/10/08 01:05:24;;;;;;;;;;;13.90;54.70;;;9.63;100.00;96486.91;5010588;28;19913;-48
2023/10/08 01:07:51;;;;;;;;;;;13.90;54.80;;;9.62;100.00;96487.13;5011348;28;20333;-48
2023/10/08 01:10:20;;;;;;;;;;;13.90;54.90;;;9.65;100.00;96492.00;5010260;28;19916;-48
2023/10/08 01:13:11;;;;;;;;;;;13.90;54.90;;;9.66;100.00;96480.31;5011321;28;19921;-49
2023/10/08 01:15:37;;;;;;;;;;;13.90;55.00;;;9.64;100.00;96480.53;5010276;28;19909;-48
2023/10/08 01:18:04;;;;;;;;;;;13.90;55.00;;;9.60;100.00;96473.28;5011265;28;20062;-47
2023/10/08 01:20:37;;;;;;;;;;;13.90;55.00;;;9.54;100.00;96476.88;5010921;28;19947;-48
2023/10/08 01:23:16;;;;;;;;;;;13.90;55.00;;;9.55;100.00;96479.31;5010354;28;20559;-52
2023/10/08 01:28:45;;;;;;;;;;;13.80;55.00;;;9.48;100.00;96474.13;4975226;28;19909;-49
2023/10/08 01:31:12;;;;;;;;;;;13.80;55.10;;;9.46;100.00;96470.06;5011057;28;20267;-48
2023/10/08 01:33:43;;;;;;;;;;;13.80;55.00;;;9.33;100.00;96468.50;5010545;28;19909;-48
2023/10/08 01:36:12;;;;;;;;;;;13.80;55.00;;;9.22;100.00;96472.00;5011367;28;20359;-48
2023/10/08 01:38:41;;;;;;;;;;;13.70;55.00;;;9.21;100.00;96473.00;5011445;28;19916;-48
2023/10/08 01:41:51;;;;;;;;;;;13.70;55.00;;;9.10;100.00;96472.00;5010080;28;20378;-49
2023/10/08 01:43:58;;;;;;;;;;;13.60;55.00;;;9.14;100.00;96464.38;5005431;28;20435;-50
2023/10/08 01:46:28;;;;;;;;;;;13.60;55.10;;;9.12;100.00;96464.63;5009831;28;19920;-48
2023/10/08 01:49:03;;;;;;;;;;;13.50;55.20;;;9.18;100.00;96465.50;5010835;28;19974;-48
2023/10/08 01:51:36;;;;;;;;;;;13.50;55.30;;;9.20;100.00;96466.91;5012290;28;19915;-47
2023/10/08 01:54:04;;;;;;;;;;;13.50;55.40;;;9.20;100.00;96466.09;5008278;28;19912;-46
2023/10/08 01:56:30;;;;;;;;;;;13.50;55.40;;;9.11;100.00;96460.31;5014419;28;19909;-47
2023/10/08 01:58:55;;;;;;;;;;;13.50;55.40;;;9.11;100.00;96455.00;5014248;28;19909;-48
2023/10/08 02:01:21;;;;;;;;;;;13.50;55.50;;;9.08;100.00;96449.34;5014019;28;20363;-47
2023/10/08 02:03:48;;;;;;;;;;;13.50;55.50;;;9.20;100.00;96445.63;5013738;28;19913;-46
2023/10/08 02:06:13;;;;;;;;;;;13.40;55.70;;;9.25;100.00;96451.06;5008329;28;19963;-46
2023/10/08 02:08:39;;;;;;;;;;;13.50;55.80;;;9.21;100.00;96451.75;5014392;28;19912;-46
2023/10/08 02:11:05;;;;;;;;;;;13.50;55.70;;;9.19;100.00;96448.53;5013476;28;19974;-47
2023/10/08 02:13:31;;;;;;;;;;;13.50;55.80;;;9.17;100.00;96446.09;5014367;28;19916;-46
2023/10/08 02:15:58;;;;;;;;;;;13.50;55.70;;;9.25;100.00;96439.63;5013560;28;19909;-49
2023/10/08 02:18:24;;;;;;;;;;;13.50;55.70;;;9.27;100.00;96437.53;5006926;28;19909;-47
2023/10/08 02:20:50;;;;;;;;;;;13.50;55.70;;;9.29;100.00;96440.75;5013741;28;19909;-47
2023/10/08 02:23:17;;;;;;;;;;;13.50;55.80;;;9.31;100.00;96433.38;5013307;28;19909;-48
2023/10/08 02:25:44;;;;;;;;;;;13.50;55.70;;;9.32;100.00;96434.97;5013789;28;20279;-47
2023/10/08 02:28:15;;;;;;;;;;;13.50;55.70;;;9.30;100.00;96437.06;5013279;28;19955;-48
2023/10/08 02:30:42;;;;;;;;;;;13.50;55.70;;;9.29;100.00;96437.31;5013188;28;19932;-48
2023/10/08 02:33:14;;;;;;;;;;;13.50;55.70;;;9.24;100.00;96444.13;5013121;28;20292;-47
2023/10/08 02:35:45;;;;;;;;;;;13.50;55.80;;;9.21;100.00;96444.59;5014029;28;19951;-46
2023/10/08 02:38:18;;;;;;;;;;;13.50;55.70;;;9.23;100.00;96437.19;5013954;28;20372;-48
2023/10/08 02:40:46;;;;;;;;;;;13.50;55.80;;;9.24;100.00;96435.34;5013227;28;19947;-46
2023/10/08 02:43:15;;;;;;;;;;;13.50;55.80;;;9.20;100.00;96445.63;5013679;28;19909;-46
2023/10/08 02:45:42;;;;;;;;;;;13.50;55.70;;;9.19;100.00;96446.69;5008070;28;19919;-46
2023/10/08 02:48:11;;;;;;;;;;;13.50;55.80;;;9.18;100.00;96450.41;5012651;28;19928;-49
2023/10/08 02:50:41;;;;;;;;;;;13.50;55.80;;;9.17;100.00;96445.28;5013837;28;20346;-48
2023/10/08 02:53:17;;;;;;;;;;;13.50;55.80;;;9.11;100.00;96451.53;5012494;28;20275;-48
2023/10/08 02:55:44;;;;;;;;;;;13.50;55.80;;;9.08;100.00;96458.13;5013658;28;19913;-49
2023/10/08 02:58:21;;;;;;;;;;;13.50;55.90;;;9.04;100.00;96449.81;5012784;28;19909;-47
2023/10/08 03:00:49;;;;;;;;;;;13.40;55.90;;;9.03;100.00;96452.72;5008932;28;19944;-46
2023/10/08 03:03:18;;;;;;;;;;;13.40;56.00;;;8.97;100.00;96449.16;5011185;28;19917;-55
2023/10/08 03:05:52;;;;;;;;;;;13.40;56.00;;;8.95;100.00;96451.22;5003476;28;20004;-49
2023/10/08 03:08:20;;;;;;;;;;;13.40;56.00;;;8.93;100.00;96452.47;5013559;28;19920;-54
2023/10/08 03:10:55;;;;;;;;;;;13.30;56.00;;;8.88;100.00;96453.19;5012601;28;19909;-49
2023/10/08 03:13:22;;;;;;;;;;;13.30;56.00;;;8.82;100.00;96443.50;5013129;28;20279;-49
2023/10/08 03:18:24;;;;;;;;;;;13.20;56.00;;;8.69;100.00;96435.75;5005331;28;19968;-49
2023/10/08 03:20:50;;;;;;;;;;;13.20;56.00;;;8.65;100.00;96435.44;5013164;28;20382;-47
2023/10/08 03:23:34;;;;;;;;;;;13.20;56.10;;;8.60;100.00;96437.16;5003932;28;19995;-46
2023/10/08 03:28:57;;;;;;;;;;;13.00;56.20;;;8.52;100.00;96432.97;5010827;28;19920;-48
2023/10/08 03:31:43;;;;;;;;;;;13.00;56.20;;;8.52;100.00;96435.63;5012714;28;20442;-49
2023/10/08 03:34:14;;;;;;;;;;;13.00;56.30;;;8.46;100.00;96440.03;5012022;28;19909;-51
2023/10/08 03:36:46;;;;;;;;;;;12.90;56.30;;;8.41;100.00;96439.91;5013087;28;19912;-47
2023/10/08 03:39:18;;;;;;;;;;;12.90;56.30;;;8.34;100.00;96434.69;5012032;28;19955;-47
2023/10/08 03:42:06;;;;;;;;;;;12.90;56.40;;;8.31;100.00;96437.00;5012455;28;19999;-47
2023/10/08 03:44:31;;;;;;;;;;;12.80;56.40;;;8.30;100.00;96438.00;5013053;28;20011;-47
2023/10/08 03:46:57;;;;;;;;;;;12.80;56.50;;;8.28;100.00;96438.25;5006670;28;20443;-53
2023/10/08 03:51:53;;;;;;;;;;;12.70;56.60;;;8.22;100.00;96433.03;5003053;28;19909;-51
2023/10/08 03:54:29;;;;;;;;;;;12.70;56.60;;;8.22;100.00;96438.34;5003929;28;20004;-51
2023/10/08 03:56:56;;;;;;;;;;;12.70;56.70;;;8.21;100.00;96444.69;5009165;28;20490;-48
2023/10/08 03:59:31;;;;;;;;;;;12.60;56.70;;;8.20;100.00;96438.56;5006056;28;19916;-48
2023/10/08 04:02:13;;;;;;;;;;;12.60;56.80;;;8.21;100.00;96434.06;5010407;28;19916;-52
2023/10/08 04:04:51;;;;;;;;;;;12.60;56.80;;;8.20;100.00;96435.13;5001257;28;19913;-53
2023/10/08 04:12:43;;;;;;;;;;;12.60;57.00;;;8.23;100.00;96424.84;5006252;28;19916;-46
2023/10/08 04:15:12;;;;;;;;;;;12.60;57.10;;;8.20;100.00;96422.66;4998452;28;20008;-47
2023/10/08 04:17:43;;;;;;;;;;;12.60;57.10;;;8.21;100.00;96426.94;5012056;28;19909;-48
2023/10/08 04:23:00;;;;;;;;;;;12.60;57.10;;;8.19;100.00;96421.03;5010259;28;19955;-47
2023/10/08 04:25:30;;;;;;;;;;;12.60;57.20;;;8.17;100.00;96424.94;5012140;28;19920;-46
2023/10/08 04:28:01;;;;;;;;;;;12.60;57.20;;;8.17;100.00;96427.59;5011357;28;20286;-46
2023/10/08 04:30:35;;;;;;;;;;;12.60;57.20;;;8.16;100.00;96426.81;5012514;28;19954;-47
2023/10/08 04:33:06;;;;;;;;;;;12.60;57.20;;;8.14;100.00;96426.22;5011022;28;19955;-48
2023/10/08 04:35:36;;;;;;;;;;;12.50;57.20;;;8.15;100.00;96427.84;5010889;28;19909;-48
2023/10/08 04:38:08;;;;;;;;;;;12.60;57.30;;;8.14;100.00;96420.09;5011883;28;20376;-46
2023/10/08 04:40:48;;;;;;;;;;;12.50;57.30;;;8.15;100.00;96419.88;5010058;28;20008;-52
2023/10/08 04:43:22;;;;;;;;;;;12.50;57.40;;;8.16;100.00;96429.47;5011811;28;19916;-46
2023/10/08 04:45:49;;;;;;;;;;;12.50;57.40;;;8.14;100.00;96420.91;5010856;28;19924;-46
2023/10/08 04:48:20;;;;;;;;;;;12.60;57.50;;;8.14;100.00;96433.38;5011370;28;19983;-46
2023/10/08 04:50:58;;;;;;;;;;;12.50;57.50;;;8.11;100.00;96421.34;5011599;28;19920;-48
2023/10/08 04:53:36;;;;;;;;;;;12.50;57.60;;;8.13;100.00;96421.16;5011648;28;19912;-47
2023/10/08 04:56:05;;;;;;;;;;;12.50;57.50;;;8.11;100.00;96432.78;5003948;28;19909;-47
2023/10/08 04:58:40;;;;;;;;;;;12.50;57.60;;;8.08;100.00;96427.13;5005065;28;20008;-47
2023/10/08 05:01:17;;;;;;;;;;;12.50;57.60;;;8.14;100.00;96423.56;5002328;28;20733;-46
2023/10/08 05:09:12;;;;;;;;;;;12.50;57.70;;;8.07;100.00;96423.66;5005138;28;20343;-53
2023/10/08 05:17:11;;;;;;;;;;;12.40;57.80;;;8.04;100.00;96421.47;5005666;28;19952;-50
2023/10/08 05:22:21;;;;;;;;;;;12.50;57.90;;;8.04;100.00;96429.44;5005223;28;20291;-46
2023/10/08 05:25:08;;;;;;;;;;;12.40;57.80;;;8.02;100.00;96420.06;5015115;28;19975;-50
2023/10/08 05:30:37;;;;;;;;;;;12.40;57.90;;;7.95;100.00;96429.97;5000482;28;19936;-46
2023/10/08 05:33:06;;;;;;;;;;;12.40;58.00;;;7.89;100.00;96432.50;5012805;28;20003;-49
2023/10/08 05:51:59;;;;;;;;;;;12.30;58.70;;;7.82;100.00;96453.00;5013666;28;20011;-46
2023/10/08 06:13:13;;;;;;;;;;;12.70;58.30;;;8.30;100.00;96472.50;5013977;28;20385;-48
2023/10/08 06:16:05;;;;;;;;;;;12.80;58.40;;;8.37;100.00;96469.75;5006174;28;20288;-46
2023/10/08 06:18:33;;;;;;;;;;;12.90;58.40;;;8.45;100.00;96462.28;5014217;28;19909;-47
2023/10/08 06:21:08;;;;;;;;;;;12.90;58.40;;;8.50;100.00;96465.09;5013492;28;19913;-49
2023/10/08 06:23:37;;;;;;;;;;;13.00;58.40;;;8.61;100.00;96463.47;5007382;28;20348;-50
2023/10/08 06:28:45;;;;;;;;;;;13.20;58.40;;;8.80;100.00;96464.16;5013191;28;19959;-46
2023/10/08 06:31:11;;;;;;;;;;;13.30;58.40;;;8.88;100.00;96463.81;5013790;28;20295;-46
2023/10/08 06:33:40;;;;;;;;;;;13.40;58.40;;;8.99;100.00;96467.50;5013111;28;19909;-47
2023/10/08 06:38:41;;;;;;;;;;;13.60;58.40;;;9.20;100.00;96474.88;5013685;28;19916;-46
2023/10/08 06:41:15;;;;;;;;;;;13.70;58.40;;;9.30;100.00;96479.59;5012907;28;19909;-47
2023/10/08 06:43:46;;;;;;;;;;;13.80;58.40;;;9.42;100.00;96479.56;5013910;28;19909;-47
2023/10/08 06:46:13;;;;;;;;;;;13.90;58.40;;;9.56;100.00;96486.25;5012617;28;19924;-50
2023/10/08 06:48:43;;;;;;;;;;;14.10;58.40;;;9.70;100.00;96486.78;5002415;28;19927;-48
2023/10/08 06:51:12;;;;;;;;;;;14.20;58.40;;;9.87;100.00;96489.47;5010418;28;20288;-47
2023/10/08 06:53:45;;;;;;;;;;;14.30;58.40;;;10.02;100.00;96489.78;5007909;28;19999;-49
2023/10/08 06:56:13;;;;;;;;;;;14.50;58.40;;;10.11;100.00;96483.00;5010715;28;20291;-47
2023/10/08 06:58:45;;;;;;;;;;;14.60;58.30;;;10.22;100.00;96492.00;5013275;28;19960;-47
2023/10/08 07:01:13;;;;;;;;;;;14.80;58.20;;;10.36;100.00;96487.19;5012029;28;20003;-51
2023/10/08 07:03:39;;;;;;;;;;;14.90;58.20;;;10.45;100.00;96483.09;5005120;28;19963;-47
2023/10/08 07:06:16;;;;;;;;;;;15.10;58.10;;;10.56;100.00;96490.22;5011084;28;20015;-46
2023/10/08 07:08:47;;;;;;;;;;;15.20;58.00;;;10.70;100.00;96493.34;5011532;28;19916;-46
2023/10/08 07:11:13;;;;;;;;;;;15.30;57.90;;;10.85;100.00;96487.44;5007090;28;19935;-47
2023/10/08 07:13:42;;;;;;;;;;;15.60;57.90;;;11.01;100.00;96497.28;5002359;28;19968;-47
2023/10/08 07:16:11;;;;;;;;;;;15.80;57.80;;;11.23;100.00;96500.00;5009800;28;19971;-46
2023/10/08 07:18:38;;;;;;;;;;;16.10;57.60;;;11.48;100.00;96498.72;5008839;28;20435;-47
2023/10/08 07:21:12;;;;;;;;;;;16.30;57.50;;;11.74;100.00;96500.63;5001258;28;19910;-49
2023/10/08 07:23:56;;;;;;;;;;;16.60;57.30;;;12.07;100.00;96498.09;5012650;28;20398;-47
2023/10/08 07:26:26;;;;;;;;;;;16.90;57.20;;;12.40;98.20;96499.72;5012540;28;20694;-47
2023/10/08 07:28:53;;;;;;;;;;;17.30;56.90;;;12.82;94.70;96494.47;5012023;28;19920;-47
2023/10/08 07:31:22;;;;;;;;;;;17.80;56.60;;;13.32;89.59;96500.44;5013229;28;19915;-47
2023/10/08 07:33:57;;;;;;;;;;;18.30;56.20;;;13.85;89.28;96496.66;5011094;28;19955;-50
2023/10/08 07:36:27;;;;;;;;;;;18.80;55.90;;;14.35;80.35;96502.41;5006869;28;19917;-48
2023/10/08 07:38:54;;;;;;;;;;;19.40;55.60;;;14.86;81.13;96512.41;5005267;28;19924;-49
2023/10/08 07:41:20;;;;;;;;;;;19.90;55.20;;;15.33;76.36;96508.59;5007449;28;20031;-47
2023/10/08 07:43:55;;;;;;;;;;;20.40;54.70;;;15.81;72.95;96517.84;5005771;28;19909;-53
2023/10/08 07:46:28;;;;;;;;;;;20.80;54.20;;;16.33;71.96;96516.53;5008048;28;20007;-49
2023/10/08 07:48:55;;;;;;;;;;;21.30;53.70;;;16.80;69.59;96520.53;5010471;28;19921;-51
2023/10/08 07:51:24;;;;;;;;;;;21.70;53.30;;;17.18;68.09;96518.03;5007528;28;20578;-49
2023/10/08 07:53:55;;;;;;;;;;;22.20;52.90;;;17.57;66.02;96517.91;5002065;28;19909;-47
2023/10/08 07:56:23;;;;;;;;;;;22.60;52.50;;;18.00;61.86;96520.66;5010410;28;19912;-48
2023/10/08 07:58:50;;;;;;;;;;;23.10;52.10;;;18.21;60.69;96520.41;5010015;28;19916;-47
2023/10/08 08:01:16;;;;;;;;;;;23.50;51.40;;;18.58;59.98;96522.28;5012318;28;20008;-50
2023/10/08 08:03:44;;;;;;;;;;;23.90;50.90;;;18.90;58.06;96521.56;5001678;28;19949;-51
2023/10/08 08:06:10;;;;;;;;;;;24.30;50.50;;;19.14;57.12;96526.81;5003293;28;19913;-51
2023/10/08 08:08:38;;;;;;;;;;;24.70;50.00;;;19.52;55.91;96531.28;5003769;28;19940;-48
2023/10/08 08:11:17;;;;;;;;;;;25.00;49.40;;;19.81;56.19;96528.34;5010462;28;19909;-47
2023/10/08 08:13:45;;;;;;;;;;;25.40;49.10;;;20.24;54.77;96525.28;5011586;28;19967;-52
2023/10/08 08:16:16;;;;;;;;;;;25.80;48.70;;;20.58;53.25;96537.59;5011389;28;19909;-51
2023/10/08 08:18:48;;;;;;;;;;;26.20;48.40;;;20.84;53.00;96524.25;5009737;28;20344;-54
2023/10/08 08:21:15;;;;;;;;;;;26.50;47.90;;;21.01;52.69;96530.59;5011208;28;19909;-53
2023/10/08 08:23:47;;;;;;;;;;;26.90;47.60;;;21.37;50.88;96529.75;5010580;28;19909;-49
2023/10/08 08:26:28;;;;;;;;;;;27.20;47.10;;;21.66;50.75;96534.66;5011908;28;20372;-53
2023/10/08 08:29:01;;;;;;;;;;;27.60;46.70;;;21.84;49.99;96532.00;5011157;28;19908;-55
2023/10/08 08:31:32;;;;;;;;;;;27.90;46.20;;;22.06;49.42;96531.09;5012059;28;19909;-52
2023/10/08 08:34:03;;;;;;;;;;;28.10;45.90;;;22.22;48.50;96535.03;5003166;28;19941;-53
2023/10/08 08:36:31;;;;;;;;;;;28.30;45.50;;;22.52;49.43;96538.72;5011657;28;20042;-55
2023/10/08 08:38:57;;;;;;;;;;;28.60;45.30;;;22.71;46.78;96535.69;5004759;28;20391;-52
2023/10/08 08:41:24;;;;;;;;;;;28.90;44.90;;;22.83;46.32;96544.00;5001843;28;19920;-51
2023/10/08 08:43:58;;;;;;;;;;;29.10;44.50;;;23.06;47.14;96543.88;5011138;28;19955;-51
2023/10/08 08:46:37;;;;;;;;;;;29.30;44.10;;;23.27;46.87;96533.91;5008210;28;20026;-51
2023/10/08 08:49:07;;;;;;;;;;;29.50;43.70;;;23.23;46.37;96534.91;5003696;28;19921;-51
2023/10/08 08:51:37;;;;;;;;;;;29.70;43.50;;;23.42;46.24;96538.06;5002728;28;19967;-49
2023/10/08 08:54:14;;;;;;;;;;;29.90;43.20;;;23.64;46.16;96547.91;4997359;28;19914;-48
2023/10/08 08:56:43;;;;;;;;;;;30.10;42.90;;;23.67;45.59;96541.81;5000725;28;19948;-49
2023/10/08 08:59:11;;;;;;;;;;;30.30;42.60;;;23.52;45.94;96536.91;4999701;28;19910;-48
2023/10/08 09:01:42;;;;;;;;;;;30.40;42.30;;;23.56;46.05;96540.56;4993993;28;20423;-48
2023/10/08 09:04:08;;;;;;;;;;;30.50;42.10;;;23.93;45.99;96538.22;5000906;28;20280;-48
2023/10/08 09:06:37;;;;;;;;;;;30.60;41.90;;;24.08;45.20;96532.22;4997632;28;19928;-48
2023/10/08 09:09:22;;;;;;;;;;;30.70;41.50;;;24.38;44.71;96533.00;4999942;28;19913;-50
2023/10/08 09:11:53;;;;;;;;;;;30.90;41.30;;;24.68;44.16;96535.69;5002223;28;19990;-50
2023/10/08 09:14:25;;;;;;;;;;;30.90;41.00;;;24.94;43.42;96543.66;4997222;28;19924;-48
2023/10/08 09:16:54;;;;;;;;;;;31.10;41.00;;;25.06;42.50;96545.63;4999134;28;19916;-49
2023/10/08 09:19:24;;;;;;;;;;;31.30;40.70;;;25.01;42.69;96535.75;4995718;28;19933;-50
2023/10/08 09:22:11;;;;;;;;;;;31.50;40.40;;;24.88;42.30;96537.63;4999026;28;20287;-51
2023/10/08 09:24:40;;;;;;;;;;;31.60;40.10;;;25.08;42.06;96537.94;4995446;28;20292;-55
2023/10/08 09:27:15;;;;;;;;;;;31.60;39.70;;;25.17;41.68;96544.13;4997047;28;19943;-54
2023/10/08 09:29:42;;;;;;;;;;;31.70;39.50;;;25.27;41.99;96542.91;5004263;28;20011;-49
2023/10/08 09:32:23;;;;;;;;;;;31.90;39.50;;;25.36;40.53;96536.22;4998732;28;19921;-51
2023/10/08 09:34:52;;;;;;;;;;;32.10;39.20;;;25.62;40.89;96543.34;4999591;28;19909;-53
2023/10/08 09:37:21;;;;;;;;;;;32.20;39.00;;;25.93;40.10;96542.03;5000961;28;20283;-54
2023/10/08 09:39:51;;;;;;;;;;;32.40;38.80;;;26.13;40.08;96541.13;5001982;28;19913;-55
2023/10/08 09:42:21;;;;;;;;;;;32.70;38.70;;;26.45;39.07;96539.41;4975667;28;25874;-53
2023/10/08 09:44:47;;;;;;;;;;;33.00;38.50;;;26.52;39.12;96541.56;5004148;28;19917;-51
2023/10/08 09:47:22;;;;;;;;;;;33.20;38.10;;;26.39;40.08;96540.78;5005052;28;19924;-51
2023/10/08 09:50:07;;;;;;;;;;;33.40;37.90;;;26.51;39.28;96542.69;4998193;28;20376;-52
2023/10/08 09:53:22;;;;;;;;;;;33.60;37.80;;;26.48;38.71;96546.09;5000135;28;19987;-52
2023/10/08 09:55:56;;;;;;;;;;;33.70;37.50;;;26.63;37.29;96539.16;4990622;28;20403;-49
2023/10/08 09:58:27;;;;;;;;;;;33.90;37.30;;;26.45;38.35;96544.88;5004473;28;19960;-49
2023/10/08 10:00:57;;;;;;;;;;;34.00;36.90;;;26.68;38.05;96533.47;5000139;28;19932;-49
2023/10/08 10:03:26;;;;;;;;;;;34.00;36.80;;;26.80;38.34;96527.16;4998999;28;19921;-49
2023/10/08 10:05:58;;;;;;;;;;;34.20;36.60;;;26.77;37.22;96536.84;5000460;28;19968;-49
2023/10/08 10:08:26;;;;;;;;;;;34.30;36.40;;;27.12;36.99;96539.78;5003878;28;19916;-51
2023/10/08 10:11:00;;;;;;;;;;;34.40;36.30;;;27.20;35.29;96544.34;5008179;28;20023;-49
2023/10/08 10:13:46;;;;;;;;;;;34.60;36.00;;;27.33;35.30;96544.28;5005847;28;19913;-54
2023/10/08 10:16:16;;;;;;;;;;;34.70;35.70;;;27.51;36.08;96545.53;5006531;28;19942;-49
2023/10/08 10:18:48;;;;;;;;;;;34.90;35.60;;;27.58;34.34;96550.44;5001842;28;19940;-51
2023/10/08 10:21:14;;;;;;;;;;;35.20;35.40;;;27.82;35.14;96550.28;5005795;28;20392;-52
2023/10/08 10:23:43;;;;;;;;;;;35.30;35.10;;;27.85;35.38;96546.03;5006792;28;19924;-50
2023/10/08 10:26:40;;;;;;;;;;;35.40;34.90;;;28.14;34.29;96542.88;5000496;28;20040;-49
2023/10/08 10:29:14;;;;;;;;;;;35.60;34.70;;;28.41;35.55;96543.09;5004175;28;20424;-47
2023/10/08 10:31:52;;;;;;;;;;;35.90;34.60;;;28.59;33.32;96546.25;5003281;28;19916;-50
2023/10/08 10:34:28;;;;;;;;;;;36.10;34.40;;;28.90;34.73;96536.31;4999231;28;19949;-52
2023/10/08 10:36:58;;;;;;;;;;;36.30;34.20;;;29.13;33.79;96541.91;5004006;28;19931;-47
2023/10/08 10:39:26;;;;;;;;;;;36.50;33.90;;;29.47;32.72;96538.25;4999284;28;19916;-55
2023/10/08 10:41:57;;;;;;;;;;;36.70;33.60;;;29.55;32.47;96541.09;5002130;28;19959;-54
2023/10/08 10:44:26;;;;;;;;;;;36.90;33.50;;;29.57;32.84;96536.84;5003899;28;19967;-56
2023/10/08 10:47:25;;;;;;;;;;;37.10;33.20;;;29.62;32.20;96539.34;5003383;28;19913;-53
2023/10/08 10:49:52;;;;;;;;;;;37.30;33.10;;;29.85;32.32;96541.28;5001740;28;20356;-57
2023/10/08 10:52:44;;;;;;;;;;;37.50;32.90;;;29.76;30.92;96538.78;5006119;28;19949;-52
2023/10/08 10:55:21;;;;;;;;;;;37.70;32.60;;;30.14;31.25;96543.31;4996510;28;20363;-57
2023/10/08 10:57:55;;;;;;;;;;;37.70;32.00;;;29.97;31.09;96539.13;4997207;28;19909;-51
2023/10/08 11:03:02;;;;;;;;;;;37.90;31.70;;;30.16;30.95;96534.72;5004441;28;20279;-52
2023/10/08 11:05:37;;;;;;;;;;;38.00;31.60;;;30.13;29.99;96533.50;5004179;28;19937;-53
2023/10/08 11:08:06;;;;;;;;;;;38.10;31.30;;;29.95;30.03;96529.69;5003150;28;20008;-52
2023/10/08 11:10:49;;;;;;;;;;;38.10;30.90;;;29.79;30.15;96529.03;5002308;28;19916;-49
2023/10/08 11:13:15;;;;;;;;;;;38.10;30.20;;;30.21;30.96;96526.22;5003332;28;19909;-53
2023/10/08 11:15:48;;;;;;;;;;;38.10;30.10;;;30.12;29.67;96531.94;5003711;28;19917;-54
2023/10/08 11:18:17;;;;;;;;;;;38.20;30.20;;;30.28;30.82;96531.00;5002267;28;20391;-53
2023/10/08 11:20:44;;;;;;;;;;;38.30;30.20;;;30.36;29.40;96527.97;5004309;28;19917;-52
2023/10/08 11:23:28;;;;;;;;;;;38.50;30.10;;;30.54;29.32;96531.00;5008551;28;19912;-48
2023/10/08 11:26:02;;;;;;;;;;;38.50;29.90;;;30.65;29.23;96529.19;5004528;28;19913;-55
2023/10/08 11:28:35;;;;;;;;;;;38.70;29.90;;;30.86;28.48;96523.19;5000836;28;19909;-55
2023/10/08 11:31:08;;;;;;;;;;;38.80;29.60;;;30.74;28.79;96517.88;5000503;28;19962;-50
2023/10/08 11:33:56;;;;;;;;;;;38.90;29.60;;;30.64;28.68;96513.84;5003627;28;19952;-50
2023/10/08 11:36:30;;;;;;;;;;;39.10;29.60;;;30.69;28.87;96515.50;4998948;28;20295;-52
2023/10/08 11:39:09;;;;;;;;;;;39.20;29.30;;;31.10;28.58;96502.66;5004880;28;20016;-49
2023/10/08 11:41:49;;;;;;;;;;;39.30;29.20;;;31.05;28.69;96505.72;5000772;28;19915;-48
2023/10/08 11:44:19;;;;;;;;;;;39.40;29.10;;;31.11;28.47;96500.69;4998471;28;20455;-51
2023/10/08 11:46:51;;;;;;;;;;;39.40;28.90;;;31.04;28.74;96498.66;5007931;28;19921;-48
2023/10/08 11:49:25;;;;;;;;;;;39.60;28.90;;;31.09;28.75;96490.06;5006084;28;19960;-48
2023/10/08 11:51:52;;;;;;;;;;;39.60;28.40;;;31.45;29.65;96498.72;5005049;28;19948;-48
2023/10/08 11:54:20;;;;;;;;;;;39.60;28.50;;;31.53;29.23;96491.34;5005229;28;19913;-48
2023/10/08 11:56:47;;;;;;;;;;;39.70;28.50;;;31.57;28.19;96492.16;5004606;28;19909;-50
2023/10/08 11:59:13;;;;;;;;;;;39.80;28.30;;;31.83;28.83;96491.19;5005578;28;19995;-52
2023/10/08 12:01:42;;;;;;;;;;;39.80;28.30;;;31.96;28.32;96486.19;4997026;28;20027;-50
2023/10/08 12:04:12;;;;;;;;;;;40.00;28.30;;;31.96;27.75;96477.94;5000089;28;19909;-51
2023/10/08 12:06:51;;;;;;;;;;;40.20;28.30;;;32.26;28.47;96475.78;4995625;28;20479;-55
2023/10/08 12:09:21;;;;;;;;;;;40.40;28.30;;;32.05;28.16;96477.59;5004424;28;20547;-53
2023/10/08 12:11:48;;;;;;;;;;;40.60;28.20;;;32.03;28.20;96476.03;4994851;28;19913;-55
2023/10/08 12:14:14;;;;;;;;;;;40.80;28.20;;;32.05;28.00;96472.09;5007145;28;19916;-55
2023/10/08 12:16:43;;;;;;;;;;;40.90;28.00;;;32.01;27.93;96472.06;4998832;28;19909;-55
2023/10/08 12:19:17;;;;;;;;;;;41.00;27.70;;;31.95;28.71;96476.34;5006125;28;19909;-53
2023/10/08 12:21:46;;;;;;;;;;;41.10;27.60;;;32.23;27.37;96473.00;5001573;28;20403;-57
2023/10/08 12:24:12;;;;;;;;;;;41.10;27.50;;;32.48;28.13;96462.16;5010136;28;19916;-55
2023/10/08 12:26:45;;;;;;;;;;;41.10;27.40;;;32.60;27.99;96464.56;4998273;28;19913;-53
2023/10/08 12:29:16;;;;;;;;;;;41.20;27.40;;;32.70;26.84;96463.81;5007170;28;19916;-55
2023/10/08 12:31:47;;;;;;;;;;;41.30;27.30;;;32.47;27.75;96464.13;4999123;28;19914;-52
2023/10/08 12:34:16;;;;;;;;;;;41.40;27.10;;;32.61;26.60;96457.88;5001430;28;19913;-53
2023/10/08 12:36:42;;;;;;;;;;;41.30;27.00;;;32.50;28.21;96454.28;4999806;28;19913;-56
2023/10/08 12:39:11;;;;;;;;;;;41.40;26.70;;;32.19;27.79;96453.69;5000644;28;19916;-56
2023/10/08 12:41:39;;;;;;;;;;;41.30;26.70;;;32.22;27.42;96443.88;4999887;28;19909;-54
2023/10/08 12:44:07;;;;;;;;;;;41.30;26.70;;;32.64;27.40;96448.81;5004215;28;20342;-53
2023/10/08 12:46:34;;;;;;;;;;;41.20;26.70;;;32.53;27.27;96444.44;5000505;28;20012;-54
2023/10/08 12:49:01;;;;;;;;;;;41.20;26.70;;;32.59;27.69;96442.88;5005386;28;19921;-55
2023/10/08 12:51:32;;;;;;;;;;;41.20;26.60;;;32.69;27.74;96442.16;5000845;28;19917;-57
2023/10/08 12:54:06;;;;;;;;;;;41.10;26.70;;;32.57;28.09;96442.50;5004992;28;20446;-52
2023/10/08 12:56:48;;;;;;;;;;;40.90;26.60;;;32.08;27.57;96447.31;4999165;28;19935;-49
2023/10/08 12:59:21;;;;;;;;;;;40.70;26.60;;;31.55;27.80;96445.72;5002094;28;19945;-53
2023/10/08 13:01:51;;;;;;;;;;;40.50;26.60;;;31.83;28.87;96436.09;5007327;28;19923;-49